sensor_id;sensor_type;location;lat;lon;timestamp;P1;durP1;ratioP1;P2;durP2;ratioP2
21190;SDS011;10753;52.304;20.990;2022-08-20T00:00:22;11.98;;;5.80;;
21190;SDS011;10753;52.304;20.990;2022-08-20T00:02:53;13.13;;;6.30;;
21190;SDS011;10753;52.304;20.990;2022-08-20T00:05:29;13.60;;;6.07;;
21190;SDS011;10753;52.304;20.990;2022-08-20T00:08:00;7.30;;;5.80;;
21190;SDS011;10753;52.304;20.990;2022-08-20T00:10:28;10.00;;;5.90;;
21190;SDS011;10753;52.304;20.990;2022-08-20T00:12:55;9.73;;;6.15;;
21190;SDS011;10753;52.304;20.990;2022-08-20T00:15:23;12.27;;;5.95;;
21190;SDS011;10753;52.304;20.990;2022-08-20T00:17:53;15.63;;;5.78;;
21190;SDS011;10753;52.304;20.990;2022-08-20T00:20:21;13.00;;;5.68;;
21190;SDS011;10753;52.304;20.990;2022-08-20T00:22:48;7.65;;;5.70;;
21190;SDS011;10753;52.304;20.990;2022-08-20T00:25:15;11.75;;;5.93;;
21190;SDS011;10753;52.304;20.990;2022-08-20T00:27:41;12.70;;;6.10;;
21190;SDS011;10753;52.304;20.990;2022-08-20T00:30:08;10.15;;;5.95;;
21190;SDS011;10753;52.304;20.990;2022-08-20T00:32:46;12.57;;;6.50;;
21190;SDS011;10753;52.304;20.990;2022-08-20T00:35:16;11.77;;;6.10;;
21190;SDS011;10753;52.304;20.990;2022-08-20T00:37:43;12.65;;;6.88;;
21190;SDS011;10753;52.304;20.990;2022-08-20T00:40:10;14.40;;;6.10;;
21190;SDS011;10753;52.304;20.990;2022-08-20T00:42:39;10.70;;;6.18;;
21190;SDS011;10753;52.304;20.990;2022-08-20T00:45:10;15.48;;;6.30;;
21190;SDS011;10753;52.304;20.990;2022-08-20T00:47:37;16.08;;;6.72;;
21190;SDS011;10753;52.304;20.990;2022-08-20T00:50:10;14.07;;;6.53;;
21190;SDS011;10753;52.304;20.990;2022-08-20T00:52:40;12.63;;;6.47;;
21190;SDS011;10753;52.304;20.990;2022-08-20T00:55:08;12.52;;;6.85;;
21190;SDS011;10753;52.304;20.990;2022-08-20T00:57:40;30.45;;;20.23;;
21190;SDS011;10753;52.304;20.990;2022-08-20T01:00:12;11.10;;;6.32;;
21190;SDS011;10753;52.304;20.990;2022-08-20T01:02:40;15.40;;;8.05;;
21190;SDS011;10753;52.304;20.990;2022-08-20T01:05:07;21.92;;;12.43;;
21190;SDS011;10753;52.304;20.990;2022-08-20T01:07:34;25.77;;;9.23;;
21190;SDS011;10753;52.304;20.990;2022-08-20T01:10:02;13.10;;;6.55;;
21190;SDS011;10753;52.304;20.990;2022-08-20T01:12:41;10.00;;;6.45;;
21190;SDS011;10753;52.304;20.990;2022-08-20T01:15:11;13.90;;;7.15;;
21190;SDS011;10753;52.304;20.990;2022-08-20T01:17:41;16.05;;;6.78;;
21190;SDS011;10753;52.304;20.990;2022-08-20T01:20:14;15.43;;;6.50;;
21190;SDS011;10753;52.304;20.990;2022-08-20T01:22:54;11.27;;;6.80;;
21190;SDS011;10753;52.304;20.990;2022-08-20T01:28:29;19.70;;;12.25;;
21190;SDS011;10753;52.304;20.990;2022-08-20T01:30:56;18.73;;;7.97;;
21190;SDS011;10753;52.304;20.990;2022-08-20T01:33:22;10.40;;;7.25;;
21190;SDS011;10753;52.304;20.990;2022-08-20T01:35:48;12.00;;;7.53;;
21190;SDS011;10753;52.304;20.990;2022-08-20T01:38:14;11.52;;;6.85;;
21190;SDS011;10753;52.304;20.990;2022-08-20T01:40:50;11.25;;;6.55;;
21190;SDS011;10753;52.304;20.990;2022-08-20T01:43:16;12.68;;;6.40;;
21190;SDS011;10753;52.304;20.990;2022-08-20T01:45:42;18.52;;;7.15;;
21190;SDS011;10753;52.304;20.990;2022-08-20T01:48:08;17.83;;;6.82;;
21190;SDS011;10753;52.304;20.990;2022-08-20T01:50:34;9.95;;;6.57;;
21190;SDS011;10753;52.304;20.990;2022-08-20T01:55:32;10.15;;;7.25;;
21190;SDS011;10753;52.304;20.990;2022-08-20T01:57:58;11.70;;;6.90;;
21190;SDS011;10753;52.304;20.990;2022-08-20T02:00:24;10.75;;;6.78;;
21190;SDS011;10753;52.304;20.990;2022-08-20T02:02:50;10.68;;;6.68;;
21190;SDS011;10753;52.304;20.990;2022-08-20T02:05:17;15.55;;;6.70;;
21190;SDS011;10753;52.304;20.990;2022-08-20T02:07:43;9.25;;;6.75;;
21190;SDS011;10753;52.304;20.990;2022-08-20T02:10:10;14.05;;;6.97;;
21190;SDS011;10753;52.304;20.990;2022-08-20T02:12:39;12.55;;;6.60;;
21190;SDS011;10753;52.304;20.990;2022-08-20T02:15:05;10.98;;;6.90;;
21190;SDS011;10753;52.304;20.990;2022-08-20T02:17:34;16.83;;;6.57;;
21190;SDS011;10753;52.304;20.990;2022-08-20T02:20:01;15.40;;;6.57;;
21190;SDS011;10753;52.304;20.990;2022-08-20T02:25:08;9.38;;;6.40;;
21190;SDS011;10753;52.304;20.990;2022-08-20T02:27:36;23.67;;;7.15;;
21190;SDS011;10753;52.304;20.990;2022-08-20T02:30:04;16.33;;;7.50;;
21190;SDS011;10753;52.304;20.990;2022-08-20T02:32:34;9.68;;;7.03;;
21190;SDS011;10753;52.304;20.990;2022-08-20T02:35:05;14.25;;;7.45;;
21190;SDS011;10753;52.304;20.990;2022-08-20T02:37:32;9.68;;;6.68;;
21190;SDS011;10753;52.304;20.990;2022-08-20T02:39:59;14.13;;;7.38;;
21190;SDS011;10753;52.304;20.990;2022-08-20T02:42:25;9.93;;;7.65;;
21190;SDS011;10753;52.304;20.990;2022-08-20T02:44:51;11.27;;;7.10;;
21190;SDS011;10753;52.304;20.990;2022-08-20T02:47:18;11.23;;;7.43;;
21190;SDS011;10753;52.304;20.990;2022-08-20T02:49:43;13.70;;;7.15;;
21190;SDS011;10753;52.304;20.990;2022-08-20T02:52:09;12.70;;;7.43;;
21190;SDS011;10753;52.304;20.990;2022-08-20T02:54:35;12.75;;;7.47;;
21190;SDS011;10753;52.304;20.990;2022-08-20T02:57:00;13.63;;;6.95;;
21190;SDS011;10753;52.304;20.990;2022-08-20T02:59:27;15.82;;;7.50;;
21190;SDS011;10753;52.304;20.990;2022-08-20T03:01:53;13.95;;;7.85;;
21190;SDS011;10753;52.304;20.990;2022-08-20T03:04:19;13.45;;;7.68;;
21190;SDS011;10753;52.304;20.990;2022-08-20T03:06:44;10.88;;;7.47;;
21190;SDS011;10753;52.304;20.990;2022-08-20T03:09:10;11.38;;;7.75;;
21190;SDS011;10753;52.304;20.990;2022-08-20T03:11:35;12.85;;;7.70;;
21190;SDS011;10753;52.304;20.990;2022-08-20T03:14:03;12.85;;;7.40;;
21190;SDS011;10753;52.304;20.990;2022-08-20T03:16:30;10.02;;;6.75;;
21190;SDS011;10753;52.304;20.990;2022-08-20T03:18:56;15.82;;;7.40;;
21190;SDS011;10753;52.304;20.990;2022-08-20T03:21:22;14.30;;;7.47;;
21190;SDS011;10753;52.304;20.990;2022-08-20T03:23:47;12.43;;;8.55;;
21190;SDS011;10753;52.304;20.990;2022-08-20T03:26:13;18.60;;;8.02;;
21190;SDS011;10753;52.304;20.990;2022-08-20T03:28:40;14.25;;;8.18;;
21190;SDS011;10753;52.304;20.990;2022-08-20T03:31:06;12.95;;;7.22;;
21190;SDS011;10753;52.304;20.990;2022-08-20T03:33:32;12.85;;;7.57;;
21190;SDS011;10753;52.304;20.990;2022-08-20T03:35:58;15.40;;;8.05;;
21190;SDS011;10753;52.304;20.990;2022-08-20T03:38:24;12.95;;;7.80;;
21190;SDS011;10753;52.304;20.990;2022-08-20T03:40:50;15.50;;;7.13;;
21190;SDS011;10753;52.304;20.990;2022-08-20T03:43:16;10.57;;;7.57;;
21190;SDS011;10753;52.304;20.990;2022-08-20T03:45:42;16.67;;;8.18;;
21190;SDS011;10753;52.304;20.990;2022-08-20T03:48:11;13.25;;;8.15;;
21190;SDS011;10753;52.304;20.990;2022-08-20T03:50:39;13.30;;;7.28;;
21190;SDS011;10753;52.304;20.990;2022-08-20T03:53:05;11.95;;;7.68;;
21190;SDS011;10753;52.304;20.990;2022-08-20T03:55:33;12.65;;;7.63;;
21190;SDS011;10753;52.304;20.990;2022-08-20T03:58:00;10.05;;;7.72;;
21190;SDS011;10753;52.304;20.990;2022-08-20T04:02:56;16.05;;;8.25;;
21190;SDS011;10753;52.304;20.990;2022-08-20T04:05:25;12.93;;;7.78;;
21190;SDS011;10753;52.304;20.990;2022-08-20T04:07:52;11.30;;;7.18;;
21190;SDS011;10753;52.304;20.990;2022-08-20T04:10:17;14.98;;;8.27;;
21190;SDS011;10753;52.304;20.990;2022-08-20T04:12:44;17.17;;;8.57;;
21190;SDS011;10753;52.304;20.990;2022-08-20T04:15:11;12.23;;;7.47;;
21190;SDS011;10753;52.304;20.990;2022-08-20T04:17:39;11.23;;;7.85;;
21190;SDS011;10753;52.304;20.990;2022-08-20T04:20:08;13.18;;;7.95;;
21190;SDS011;10753;52.304;20.990;2022-08-20T04:22:36;12.85;;;7.53;;
21190;SDS011;10753;52.304;20.990;2022-08-20T04:25:03;15.63;;;8.52;;
21190;SDS011;10753;52.304;20.990;2022-08-20T04:27:30;17.50;;;8.30;;
21190;SDS011;10753;52.304;20.990;2022-08-20T04:29:59;12.48;;;8.95;;
21190;SDS011;10753;52.304;20.990;2022-08-20T04:32:26;13.52;;;7.95;;
21190;SDS011;10753;52.304;20.990;2022-08-20T04:34:51;15.20;;;8.65;;
21190;SDS011;10753;52.304;20.990;2022-08-20T04:37:18;15.15;;;7.88;;
21190;SDS011;10753;52.304;20.990;2022-08-20T04:39:45;10.07;;;8.02;;
21190;SDS011;10753;52.304;20.990;2022-08-20T04:42:31;16.60;;;8.13;;
21190;SDS011;10753;52.304;20.990;2022-08-20T04:44:58;18.55;;;8.23;;
21190;SDS011;10753;52.304;20.990;2022-08-20T04:47:24;13.35;;;8.15;;
21190;SDS011;10753;52.304;20.990;2022-08-20T04:49:50;13.32;;;8.00;;
21190;SDS011;10753;52.304;20.990;2022-08-20T04:52:16;13.75;;;7.72;;
21190;SDS011;10753;52.304;20.990;2022-08-20T04:54:41;17.33;;;8.65;;
21190;SDS011;10753;52.304;20.990;2022-08-20T04:57:07;13.93;;;7.90;;
21190;SDS011;10753;52.304;20.990;2022-08-20T04:59:33;12.00;;;8.40;;
21190;SDS011;10753;52.304;20.990;2022-08-20T05:01:59;16.30;;;8.35;;
21190;SDS011;10753;52.304;20.990;2022-08-20T05:04:25;17.63;;;8.70;;
21190;SDS011;10753;52.304;20.990;2022-08-20T05:06:51;17.15;;;7.70;;
21190;SDS011;10753;52.304;20.990;2022-08-20T05:09:17;16.85;;;8.63;;
21190;SDS011;10753;52.304;20.990;2022-08-20T05:11:42;11.38;;;8.20;;
21190;SDS011;10753;52.304;20.990;2022-08-20T05:14:08;13.63;;;9.52;;
21190;SDS011;10753;52.304;20.990;2022-08-20T05:16:34;24.05;;;8.68;;
21190;SDS011;10753;52.304;20.990;2022-08-20T05:19:02;16.40;;;10.75;;
21190;SDS011;10753;52.304;20.990;2022-08-20T05:21:28;21.90;;;14.55;;
21190;SDS011;10753;52.304;20.990;2022-08-20T05:23:53;13.18;;;10.63;;
21190;SDS011;10753;52.304;20.990;2022-08-20T05:26:19;17.48;;;10.00;;
21190;SDS011;10753;52.304;20.990;2022-08-20T05:28:44;12.63;;;8.88;;
21190;SDS011;10753;52.304;20.990;2022-08-20T05:31:10;13.40;;;8.65;;
21190;SDS011;10753;52.304;20.990;2022-08-20T05:33:36;14.38;;;8.75;;
21190;SDS011;10753;52.304;20.990;2022-08-20T05:36:03;14.88;;;8.45;;
21190;SDS011;10753;52.304;20.990;2022-08-20T05:38:31;13.85;;;8.85;;
21190;SDS011;10753;52.304;20.990;2022-08-20T05:40:58;18.63;;;8.18;;
21190;SDS011;10753;52.304;20.990;2022-08-20T05:43:24;16.25;;;8.95;;
21190;SDS011;10753;52.304;20.990;2022-08-20T05:45:50;17.83;;;8.95;;
21190;SDS011;10753;52.304;20.990;2022-08-20T05:48:17;15.40;;;9.02;;
21190;SDS011;10753;52.304;20.990;2022-08-20T05:50:45;19.55;;;9.02;;
21190;SDS011;10753;52.304;20.990;2022-08-20T05:53:16;19.02;;;9.15;;
21190;SDS011;10753;52.304;20.990;2022-08-20T05:55:42;11.93;;;8.05;;
21190;SDS011;10753;52.304;20.990;2022-08-20T05:58:14;16.98;;;8.32;;
21190;SDS011;10753;52.304;20.990;2022-08-20T06:00:50;12.60;;;8.90;;
21190;SDS011;10753;52.304;20.990;2022-08-20T06:03:17;14.07;;;8.48;;
21190;SDS011;10753;52.304;20.990;2022-08-20T06:06:02;16.83;;;8.85;;
21190;SDS011;10753;52.304;20.990;2022-08-20T06:08:28;15.18;;;9.50;;
21190;SDS011;10753;52.304;20.990;2022-08-20T06:10:54;14.65;;;8.65;;
21190;SDS011;10753;52.304;20.990;2022-08-20T06:13:20;14.55;;;8.98;;
21190;SDS011;10753;52.304;20.990;2022-08-20T06:15:46;12.73;;;8.65;;
21190;SDS011;10753;52.304;20.990;2022-08-20T06:18:12;12.23;;;8.73;;
21190;SDS011;10753;52.304;20.990;2022-08-20T06:20:37;14.48;;;8.43;;
21190;SDS011;10753;52.304;20.990;2022-08-20T06:23:04;19.38;;;8.40;;
21190;SDS011;10753;52.304;20.990;2022-08-20T06:25:30;14.32;;;8.23;;
21190;SDS011;10753;52.304;20.990;2022-08-20T06:27:59;17.38;;;8.75;;
21190;SDS011;10753;52.304;20.990;2022-08-20T06:30:25;12.77;;;8.75;;
21190;SDS011;10753;52.304;20.990;2022-08-20T06:32:51;16.20;;;8.43;;
21190;SDS011;10753;52.304;20.990;2022-08-20T06:35:16;18.98;;;8.80;;
21190;SDS011;10753;52.304;20.990;2022-08-20T06:37:42;11.45;;;8.25;;
21190;SDS011;10753;52.304;20.990;2022-08-20T06:40:09;17.27;;;8.52;;
21190;SDS011;10753;52.304;20.990;2022-08-20T06:42:40;15.57;;;9.32;;
21190;SDS011;10753;52.304;20.990;2022-08-20T06:45:19;17.77;;;8.52;;
21190;SDS011;10753;52.304;20.990;2022-08-20T06:47:49;13.88;;;8.63;;
21190;SDS011;10753;52.304;20.990;2022-08-20T06:50:28;17.63;;;8.90;;
21190;SDS011;10753;52.304;20.990;2022-08-20T06:52:56;16.65;;;8.07;;
21190;SDS011;10753;52.304;20.990;2022-08-20T06:55:23;20.75;;;9.27;;
21190;SDS011;10753;52.304;20.990;2022-08-20T06:57:56;20.83;;;9.05;;
21190;SDS011;10753;52.304;20.990;2022-08-20T07:00:26;14.98;;;8.13;;
21190;SDS011;10753;52.304;20.990;2022-08-20T07:02:53;21.38;;;8.63;;
21190;SDS011;10753;52.304;20.990;2022-08-20T07:05:18;17.23;;;8.85;;
21190;SDS011;10753;52.304;20.990;2022-08-20T07:07:45;15.15;;;8.43;;
21190;SDS011;10753;52.304;20.990;2022-08-20T07:10:14;12.05;;;8.32;;
21190;SDS011;10753;52.304;20.990;2022-08-20T07:12:41;12.82;;;8.43;;
21190;SDS011;10753;52.304;20.990;2022-08-20T07:15:08;14.23;;;8.23;;
21190;SDS011;10753;52.304;20.990;2022-08-20T07:17:35;10.77;;;8.85;;
21190;SDS011;10753;52.304;20.990;2022-08-20T07:20:03;13.93;;;8.18;;
21190;SDS011;10753;52.304;20.990;2022-08-20T07:22:33;14.10;;;8.82;;
21190;SDS011;10753;52.304;20.990;2022-08-20T07:25:01;11.95;;;8.68;;
21190;SDS011;10753;52.304;20.990;2022-08-20T07:27:31;14.80;;;8.05;;
21190;SDS011;10753;52.304;20.990;2022-08-20T07:29:57;11.52;;;8.02;;
21190;SDS011;10753;52.304;20.990;2022-08-20T07:32:41;12.68;;;8.05;;
21190;SDS011;10753;52.304;20.990;2022-08-20T07:35:09;15.75;;;8.63;;
21190;SDS011;10753;52.304;20.990;2022-08-20T07:37:37;17.15;;;7.95;;
21190;SDS011;10753;52.304;20.990;2022-08-20T07:40:06;17.27;;;8.57;;
21190;SDS011;10753;52.304;20.990;2022-08-20T07:42:34;15.30;;;7.95;;
21190;SDS011;10753;52.304;20.990;2022-08-20T07:45:03;14.65;;;7.93;;
21190;SDS011;10753;52.304;20.990;2022-08-20T07:47:35;13.13;;;8.00;;
21190;SDS011;10753;52.304;20.990;2022-08-20T07:50:05;11.48;;;7.35;;
21190;SDS011;10753;52.304;20.990;2022-08-20T07:52:32;16.73;;;8.07;;
21190;SDS011;10753;52.304;20.990;2022-08-20T07:55:03;11.32;;;6.70;;
21190;SDS011;10753;52.304;20.990;2022-08-20T07:57:33;13.15;;;6.70;;
21190;SDS011;10753;52.304;20.990;2022-08-20T08:00:00;13.57;;;6.85;;
21190;SDS011;10753;52.304;20.990;2022-08-20T08:02:26;11.98;;;6.40;;
21190;SDS011;10753;52.304;20.990;2022-08-20T08:04:52;9.63;;;6.63;;
21190;SDS011;10753;52.304;20.990;2022-08-20T08:07:19;12.18;;;6.72;;
21190;SDS011;10753;52.304;20.990;2022-08-20T08:09:46;9.88;;;7.20;;
21190;SDS011;10753;52.304;20.990;2022-08-20T08:12:12;11.65;;;6.75;;
21190;SDS011;10753;52.304;20.990;2022-08-20T08:14:40;11.73;;;6.93;;
21190;SDS011;10753;52.304;20.990;2022-08-20T08:17:09;14.63;;;7.25;;
21190;SDS011;10753;52.304;20.990;2022-08-20T08:19:36;13.85;;;6.55;;
21190;SDS011;10753;52.304;20.990;2022-08-20T08:22:07;9.52;;;6.45;;
21190;SDS011;10753;52.304;20.990;2022-08-20T08:24:36;15.57;;;6.60;;
21190;SDS011;10753;52.304;20.990;2022-08-20T08:27:03;9.57;;;6.30;;
21190;SDS011;10753;52.304;20.990;2022-08-20T08:29:29;14.40;;;6.30;;
21190;SDS011;10753;52.304;20.990;2022-08-20T08:31:55;12.27;;;6.07;;
21190;SDS011;10753;52.304;20.990;2022-08-20T08:34:21;15.00;;;6.93;;
21190;SDS011;10753;52.304;20.990;2022-08-20T08:36:49;10.18;;;6.35;;
21190;SDS011;10753;52.304;20.990;2022-08-20T08:39:15;14.75;;;7.00;;
21190;SDS011;10753;52.304;20.990;2022-08-20T08:41:43;12.02;;;6.40;;
21190;SDS011;10753;52.304;20.990;2022-08-20T08:47:10;18.02;;;7.53;;
21190;SDS011;10753;52.304;20.990;2022-08-20T08:49:43;16.08;;;6.97;;
21190;SDS011;10753;52.304;20.990;2022-08-20T08:52:11;11.38;;;6.40;;
21190;SDS011;10753;52.304;20.990;2022-08-20T08:54:49;13.07;;;6.90;;
21190;SDS011;10753;52.304;20.990;2022-08-20T08:57:18;8.50;;;6.95;;
21190;SDS011;10753;52.304;20.990;2022-08-20T08:59:44;9.55;;;6.25;;
21190;SDS011;10753;52.304;20.990;2022-08-20T09:02:20;9.95;;;6.47;;
21190;SDS011;10753;52.304;20.990;2022-08-20T09:04:49;12.73;;;6.22;;
21190;SDS011;10753;52.304;20.990;2022-08-20T09:07:16;10.77;;;6.47;;
21190;SDS011;10753;52.304;20.990;2022-08-20T09:09:42;10.00;;;6.10;;
21190;SDS011;10753;52.304;20.990;2022-08-20T09:12:14;8.90;;;5.65;;
21190;SDS011;10753;52.304;20.990;2022-08-20T09:14:43;12.32;;;6.18;;
21190;SDS011;10753;52.304;20.990;2022-08-20T09:17:11;15.95;;;6.47;;
21190;SDS011;10753;52.304;20.990;2022-08-20T09:19:38;15.27;;;6.18;;
21190;SDS011;10753;52.304;20.990;2022-08-20T09:22:08;11.05;;;6.43;;
21190;SDS011;10753;52.304;20.990;2022-08-20T09:24:39;16.00;;;7.20;;
21190;SDS011;10753;52.304;20.990;2022-08-20T09:27:05;13.65;;;6.50;;
21190;SDS011;10753;52.304;20.990;2022-08-20T09:29:31;9.38;;;6.85;;
21190;SDS011;10753;52.304;20.990;2022-08-20T09:32:08;12.60;;;6.80;;
21190;SDS011;10753;52.304;20.990;2022-08-20T09:34:37;17.58;;;6.32;;
21190;SDS011;10753;52.304;20.990;2022-08-20T09:37:05;9.95;;;6.07;;
21190;SDS011;10753;52.304;20.990;2022-08-20T09:39:31;9.20;;;6.10;;
21190;SDS011;10753;52.304;20.990;2022-08-20T09:42:10;12.75;;;6.53;;
21190;SDS011;10753;52.304;20.990;2022-08-20T09:44:38;9.80;;;5.70;;
21190;SDS011;10753;52.304;20.990;2022-08-20T09:47:04;9.13;;;5.82;;
21190;SDS011;10753;52.304;20.990;2022-08-20T09:49:30;12.02;;;5.65;;
21190;SDS011;10753;52.304;20.990;2022-08-20T09:51:56;9.45;;;5.63;;
21190;SDS011;10753;52.304;20.990;2022-08-20T09:54:23;11.18;;;5.50;;
21190;SDS011;10753;52.304;20.990;2022-08-20T09:56:54;7.65;;;4.97;;
21190;SDS011;10753;52.304;20.990;2022-08-20T09:59:24;11.10;;;5.32;;
21190;SDS011;10753;52.304;20.990;2022-08-20T10:01:51;9.75;;;5.10;;
21190;SDS011;10753;52.304;20.990;2022-08-20T10:04:17;9.55;;;5.32;;
21190;SDS011;10753;52.304;20.990;2022-08-20T10:06:43;8.82;;;5.50;;
21190;SDS011;10753;52.304;20.990;2022-08-20T10:09:09;7.65;;;5.20;;
21190;SDS011;10753;52.304;20.990;2022-08-20T10:11:35;9.30;;;5.18;;
21190;SDS011;10753;52.304;20.990;2022-08-20T10:14:00;12.52;;;5.45;;
21190;SDS011;10753;52.304;20.990;2022-08-20T10:16:26;8.88;;;5.00;;
21190;SDS011;10753;52.304;20.990;2022-08-20T10:18:52;12.27;;;4.97;;
21190;SDS011;10753;52.304;20.990;2022-08-20T10:21:18;9.23;;;5.57;;
21190;SDS011;10753;52.304;20.990;2022-08-20T10:23:43;14.85;;;5.00;;
21190;SDS011;10753;52.304;20.990;2022-08-20T10:26:10;9.40;;;4.90;;
21190;SDS011;10753;52.304;20.990;2022-08-20T10:28:36;8.13;;;5.18;;
21190;SDS011;10753;52.304;20.990;2022-08-20T10:31:09;13.95;;;5.82;;
21190;SDS011;10753;52.304;20.990;2022-08-20T10:33:37;13.15;;;5.25;;
21190;SDS011;10753;52.304;20.990;2022-08-20T10:36:06;12.18;;;5.10;;
21190;SDS011;10753;52.304;20.990;2022-08-20T10:38:32;11.80;;;5.25;;
21190;SDS011;10753;52.304;20.990;2022-08-20T10:40:58;8.35;;;5.25;;
21190;SDS011;10753;52.304;20.990;2022-08-20T10:43:24;15.23;;;5.40;;
21190;SDS011;10753;52.304;20.990;2022-08-20T10:45:50;9.40;;;5.13;;
21190;SDS011;10753;52.304;20.990;2022-08-20T10:48:16;8.55;;;4.95;;
21190;SDS011;10753;52.304;20.990;2022-08-20T10:50:41;8.35;;;5.15;;
21190;SDS011;10753;52.304;20.990;2022-08-20T10:53:07;11.13;;;5.03;;
21190;SDS011;10753;52.304;20.990;2022-08-20T10:55:33;9.15;;;4.65;;
21190;SDS011;10753;52.304;20.990;2022-08-20T10:57:59;9.82;;;4.70;;
21190;SDS011;10753;52.304;20.990;2022-08-20T11:00:24;7.75;;;4.97;;
21190;SDS011;10753;52.304;20.990;2022-08-20T11:02:53;8.73;;;4.53;;
21190;SDS011;10753;52.304;20.990;2022-08-20T11:05:19;8.50;;;5.07;;
21190;SDS011;10753;52.304;20.990;2022-08-20T11:07:44;10.80;;;5.72;;
21190;SDS011;10753;52.304;20.990;2022-08-20T11:10:10;8.18;;;4.88;;
21190;SDS011;10753;52.304;20.990;2022-08-20T11:12:36;10.00;;;5.10;;
21190;SDS011;10753;52.304;20.990;2022-08-20T11:15:02;6.55;;;4.90;;
21190;SDS011;10753;52.304;20.990;2022-08-20T11:17:30;9.68;;;5.00;;
21190;SDS011;10753;52.304;20.990;2022-08-20T11:19:57;12.10;;;5.68;;
21190;SDS011;10753;52.304;20.990;2022-08-20T11:22:24;11.48;;;5.60;;
21190;SDS011;10753;52.304;20.990;2022-08-20T11:24:50;7.40;;;4.70;;
21190;SDS011;10753;52.304;20.990;2022-08-20T11:27:27;7.75;;;4.78;;
21190;SDS011;10753;52.304;20.990;2022-08-20T11:29:55;8.70;;;5.70;;
21190;SDS011;10753;52.304;20.990;2022-08-20T11:32:21;10.52;;;5.22;;
21190;SDS011;10753;52.304;20.990;2022-08-20T11:34:47;16.88;;;5.28;;
21190;SDS011;10753;52.304;20.990;2022-08-20T11:37:13;11.05;;;5.18;;
21190;SDS011;10753;52.304;20.990;2022-08-20T11:39:41;8.85;;;4.93;;
21190;SDS011;10753;52.304;20.990;2022-08-20T11:42:08;11.77;;;6.00;;
21190;SDS011;10753;52.304;20.990;2022-08-20T11:44:33;8.93;;;5.60;;
21190;SDS011;10753;52.304;20.990;2022-08-20T11:46:59;13.30;;;6.65;;
21190;SDS011;10753;52.304;20.990;2022-08-20T11:49:28;10.75;;;5.30;;
21190;SDS011;10753;52.304;20.990;2022-08-20T11:51:54;7.88;;;5.18;;
21190;SDS011;10753;52.304;20.990;2022-08-20T11:54:20;8.70;;;4.82;;
21190;SDS011;10753;52.304;20.990;2022-08-20T11:56:45;10.30;;;4.70;;
21190;SDS011;10753;52.304;20.990;2022-08-20T11:59:12;9.70;;;4.57;;
21190;SDS011;10753;52.304;20.990;2022-08-20T12:01:38;10.00;;;5.20;;
21190;SDS011;10753;52.304;20.990;2022-08-20T12:04:03;7.05;;;4.47;;
21190;SDS011;10753;52.304;20.990;2022-08-20T12:06:29;8.85;;;5.05;;
21190;SDS011;10753;52.304;20.990;2022-08-20T12:08:55;9.98;;;4.95;;
21190;SDS011;10753;52.304;20.990;2022-08-20T12:11:20;12.02;;;4.93;;
21190;SDS011;10753;52.304;20.990;2022-08-20T12:13:46;9.75;;;5.50;;
21190;SDS011;10753;52.304;20.990;2022-08-20T12:16:12;12.07;;;4.78;;
21190;SDS011;10753;52.304;20.990;2022-08-20T12:18:37;7.60;;;4.90;;
21190;SDS011;10753;52.304;20.990;2022-08-20T12:21:03;8.18;;;5.30;;
21190;SDS011;10753;52.304;20.990;2022-08-20T12:23:29;12.35;;;5.13;;
21190;SDS011;10753;52.304;20.990;2022-08-20T12:25:54;5.90;;;4.45;;
21190;SDS011;10753;52.304;20.990;2022-08-20T12:28:20;7.47;;;4.40;;
21190;SDS011;10753;52.304;20.990;2022-08-20T12:30:45;7.47;;;5.00;;
21190;SDS011;10753;52.304;20.990;2022-08-20T12:33:11;8.45;;;4.78;;
21190;SDS011;10753;52.304;20.990;2022-08-20T12:35:38;12.10;;;4.90;;
21190;SDS011;10753;52.304;20.990;2022-08-20T12:38:04;8.95;;;4.97;;
21190;SDS011;10753;52.304;20.990;2022-08-20T12:40:31;13.35;;;5.07;;
21190;SDS011;10753;52.304;20.990;2022-08-20T12:42:57;6.97;;;4.38;;
21190;SDS011;10753;52.304;20.990;2022-08-20T12:45:23;7.22;;;4.53;;
21190;SDS011;10753;52.304;20.990;2022-08-20T12:47:49;8.55;;;4.93;;
21190;SDS011;10753;52.304;20.990;2022-08-20T12:50:21;9.65;;;4.95;;
21190;SDS011;10753;52.304;20.990;2022-08-20T12:52:49;10.00;;;4.68;;
21190;SDS011;10753;52.304;20.990;2022-08-20T12:55:16;7.07;;;4.57;;
21190;SDS011;10753;52.304;20.990;2022-08-20T12:57:46;8.65;;;4.38;;
21190;SDS011;10753;52.304;20.990;2022-08-20T13:00:21;9.60;;;4.97;;
21190;SDS011;10753;52.304;20.990;2022-08-20T13:02:49;10.63;;;4.30;;
21190;SDS011;10753;52.304;20.990;2022-08-20T13:05:16;10.40;;;5.05;;
21190;SDS011;10753;52.304;20.990;2022-08-20T13:07:42;7.43;;;4.53;;
21190;SDS011;10753;52.304;20.990;2022-08-20T13:10:10;7.43;;;4.75;;
21190;SDS011;10753;52.304;20.990;2022-08-20T13:12:38;6.32;;;4.80;;
21190;SDS011;10753;52.304;20.990;2022-08-20T13:15:03;7.60;;;4.55;;
21190;SDS011;10753;52.304;20.990;2022-08-20T13:17:30;8.50;;;4.85;;
21190;SDS011;10753;52.304;20.990;2022-08-20T13:19:55;7.03;;;4.80;;
21190;SDS011;10753;52.304;20.990;2022-08-20T13:22:21;6.32;;;4.78;;
21190;SDS011;10753;52.304;20.990;2022-08-20T13:24:46;9.50;;;4.88;;
21190;SDS011;10753;52.304;20.990;2022-08-20T13:27:16;9.05;;;4.60;;
21190;SDS011;10753;52.304;20.990;2022-08-20T13:29:47;11.60;;;5.10;;
21190;SDS011;10753;52.304;20.990;2022-08-20T13:32:14;6.70;;;4.80;;
21190;SDS011;10753;52.304;20.990;2022-08-20T13:34:40;13.27;;;4.82;;
21190;SDS011;10753;52.304;20.990;2022-08-20T13:37:16;9.02;;;4.93;;
21190;SDS011;10753;52.304;20.990;2022-08-20T13:39:50;13.77;;;4.93;;
21190;SDS011;10753;52.304;20.990;2022-08-20T13:42:16;6.63;;;4.93;;
21190;SDS011;10753;52.304;20.990;2022-08-20T13:44:42;6.90;;;4.65;;
21190;SDS011;10753;52.304;20.990;2022-08-20T13:47:15;11.38;;;4.97;;
21190;SDS011;10753;52.304;20.990;2022-08-20T13:49:43;13.50;;;5.18;;
21190;SDS011;10753;52.304;20.990;2022-08-20T13:52:10;7.25;;;5.10;;
21190;SDS011;10753;52.304;20.990;2022-08-20T13:54:35;8.48;;;4.20;;
21190;SDS011;10753;52.304;20.990;2022-08-20T13:57:08;6.93;;;4.60;;
21190;SDS011;10753;52.304;20.990;2022-08-20T13:59:39;9.02;;;5.60;;
21190;SDS011;10753;52.304;20.990;2022-08-20T14:02:09;12.02;;;5.47;;
21190;SDS011;10753;52.304;20.990;2022-08-20T14:04:36;8.05;;;4.82;;
21190;SDS011;10753;52.304;20.990;2022-08-20T14:07:35;13.50;;;5.20;;
21190;SDS011;10753;52.304;20.990;2022-08-20T14:09:56;8.73;;;4.68;;
21190;SDS011;10753;52.304;20.990;2022-08-20T14:12:23;7.32;;;5.00;;
21190;SDS011;10753;52.304;20.990;2022-08-20T14:14:50;8.13;;;4.70;;
21190;SDS011;10753;52.304;20.990;2022-08-20T14:17:18;12.57;;;5.13;;
21190;SDS011;10753;52.304;20.990;2022-08-20T14:19:44;8.68;;;6.00;;
21190;SDS011;10753;52.304;20.990;2022-08-20T14:22:11;12.30;;;5.07;;
21190;SDS011;10753;52.304;20.990;2022-08-20T14:24:37;10.35;;;5.35;;
21190;SDS011;10753;52.304;20.990;2022-08-20T14:27:06;10.27;;;5.15;;
21190;SDS011;10753;52.304;20.990;2022-08-20T14:29:33;10.43;;;4.70;;
21190;SDS011;10753;52.304;20.990;2022-08-20T14:31:59;9.82;;;5.22;;
21190;SDS011;10753;52.304;20.990;2022-08-20T14:34:25;8.65;;;5.43;;
21190;SDS011;10753;52.304;20.990;2022-08-20T14:36:50;8.48;;;4.88;;
21190;SDS011;10753;52.304;20.990;2022-08-20T14:39:16;13.13;;;5.25;;
21190;SDS011;10753;52.304;20.990;2022-08-20T14:41:42;10.13;;;5.68;;